Time;durP1;ratioP1;P1;durP2;ratioP2;P2;SDS_P1;SDS_P2;PMS_P1;PMS_P2;Temp;Humidity;BMP_temperature;BMP_pressure;BME280_temperature;BME280_humidity;BME280_pressure;Samples;Min_cycle;Max_cycle;Signal;HPM_P1;HPM_P2
2023/06/06 00:01:03;0.00;0.00;0.62;0.00;0.00;0.62;3.67;2.97;;;28.20;20.50;;;;;;2263449;61;20419;-62
2023/06/06 00:03:48;0.00;0.00;0.62;0.00;0.00;0.62;3.43;3.03;;;28.20;20.50;;;;;;2260637;61;20409;-63
2023/06/06 00:06:35;0.00;0.00;0.62;0.00;0.00;0.62;3.60;3.30;;;28.20;20.60;;;;;;2260778;61;20381;-66
2023/06/06 00:09:21;0.00;0.00;0.62;0.00;0.00;0.62;3.00;2.70;;;28.20;20.70;;;;;;2261146;61;20360;-65
2023/06/06 00:12:12;0.00;0.00;0.62;0.00;0.00;0.62;3.70;3.40;;;28.20;20.70;;;;;;2261094;61;20392;-64
2023/06/06 00:14:57;0.00;0.00;0.62;0.00;0.00;0.62;6.33;3.47;;;28.20;20.80;;;;;;2260872;61;20434;-64
2023/06/06 00:17:44;0.00;0.00;0.62;0.00;0.00;0.62;3.33;2.93;;;28.20;20.70;;;;;;2260653;61;20377;-64
2023/06/06 00:20:32;0.00;0.00;0.62;0.00;0.00;0.62;3.03;2.73;;;28.20;20.70;;;;;;2255942;61;20357;-64
2023/06/06 00:23:17;0.00;0.00;0.62;0.00;0.00;0.62;3.90;3.20;;;28.20;20.70;;;;;;2259581;61;20404;-64
2023/06/06 00:26:04;0.00;0.00;0.62;0.00;0.00;0.62;4.63;2.67;;;28.20;20.70;;;;;;2257006;61;20357;-64
2023/06/06 00:28:49;0.00;0.00;0.62;0.00;0.00;0.62;3.60;2.80;;;28.20;20.70;;;;;;2260310;61;20372;-64
2023/06/06 00:31:35;0.00;0.00;0.62;0.00;0.00;0.62;4.53;3.60;;;28.10;20.50;;;;;;2256376;61;20380;-63
2023/06/06 00:34:19;0.00;0.00;0.62;0.00;0.00;0.62;4.93;3.93;;;28.10;20.60;;;;;;2260402;61;20442;-64
2023/06/06 00:37:05;0.00;0.00;0.62;0.00;0.00;0.62;4.17;3.50;;;28.10;20.60;;;;;;2260340;61;20918;-65
2023/06/06 00:39:49;0.00;0.00;0.62;0.00;0.00;0.62;3.90;3.37;;;28.00;20.60;;;;;;2260425;61;20428;-65
2023/06/06 00:42:38;0.00;0.00;0.62;0.00;0.00;0.62;3.20;2.90;;;27.90;20.50;;;;;;2256790;61;20439;-65
2023/06/06 00:45:22;0.00;0.00;0.62;0.00;0.00;0.62;3.53;3.23;;;27.90;20.60;;;;;;2258817;61;20381;-62
2023/06/06 00:48:08;0.00;0.00;0.62;0.00;0.00;0.62;3.10;2.80;;;27.90;20.60;;;;;;2260468;61;20368;-65
2023/06/06 00:50:53;0.00;0.00;0.62;0.00;0.00;0.62;3.27;2.97;;;27.90;20.70;;;;;;2260707;61;20369;-65
2023/06/06 00:53:38;0.00;0.00;0.62;0.00;0.00;0.62;3.67;2.80;;;27.90;20.70;;;;;;2259829;61;20392;-65
2023/06/06 00:56:27;0.00;0.00;0.62;0.00;0.00;0.62;3.50;3.20;;;27.80;20.60;;;;;;2260386;61;20867;-64
2023/06/06 00:59:13;0.00;0.00;0.62;0.00;0.00;0.62;3.43;3.13;;;27.80;20.70;;;;;;2257015;61;20849;-66
2023/06/06 01:02:03;0.00;0.00;0.62;0.00;0.00;0.62;3.97;2.60;;;27.80;20.70;;;;;;2260187;61;20389;-65
2023/06/06 01:04:49;0.00;0.00;0.62;0.00;0.00;0.62;3.53;3.07;;;27.80;20.80;;;;;;2257066;61;20445;-65
2023/06/06 01:07:38;0.00;0.00;0.62;0.00;0.00;0.62;3.30;3.00;;;27.80;20.80;;;;;;2255961;61;20751;-65
2023/06/06 01:10:23;0.00;0.00;0.62;0.00;0.00;0.62;3.53;3.00;;;27.80;20.80;;;;;;2260409;61;20361;-64
2023/06/06 01:13:22;0.00;0.00;0.62;0.00;0.00;0.62;3.10;2.63;;;27.80;20.70;;;;;;2259973;61;20388;-65
2023/06/06 01:16:15;0.00;0.00;0.62;0.00;0.00;0.62;3.77;3.20;;;27.70;20.80;;;;;;2260150;61;20357;-65
2023/06/06 01:19:01;0.00;0.00;0.62;0.00;0.00;0.62;3.97;3.07;;;27.70;20.80;;;;;;2257393;61;20813;-65
2023/06/06 01:21:51;0.00;0.00;0.62;0.00;0.00;0.62;3.50;2.77;;;27.70;20.80;;;;;;2256459;61;20897;-66
2023/06/06 01:24:36;0.00;0.00;0.62;0.00;0.00;0.62;3.00;2.70;;;27.70;20.90;;;;;;2257052;61;20405;-64
2023/06/06 01:27:22;0.00;0.00;0.62;0.00;0.00;0.62;3.47;3.00;;;27.70;20.90;;;;;;2260175;61;20408;-65
2023/06/06 01:30:08;0.00;0.00;0.62;0.00;0.00;0.62;3.60;3.00;;;27.70;21.00;;;;;;2260074;61;20369;-63
2023/06/06 01:33:08;0.00;0.00;0.62;0.00;0.00;0.62;3.70;3.13;;;27.70;21.00;;;;;;2256510;61;20477;-64
2023/06/06 01:36:09;0.00;0.00;0.62;0.00;0.00;0.62;3.40;3.10;;;27.70;21.10;;;;;;2260466;61;20774;-65
2023/06/06 01:39:01;0.00;0.00;0.62;0.00;0.00;0.62;3.07;2.77;;;27.70;21.10;;;;;;2260232;61;20361;-64
2023/06/06 01:41:51;0.00;0.00;0.62;0.00;0.00;0.62;2.93;2.63;;;27.70;21.10;;;;;;2259811;61;20377;-64
2023/06/06 01:44:38;0.00;0.00;0.62;0.00;0.00;0.62;3.40;2.90;;;27.70;21.20;;;;;;2259069;61;20372;-65
2023/06/06 01:47:24;0.00;0.00;0.62;0.00;0.00;0.62;3.50;3.10;;;27.70;21.20;;;;;;2260385;61;20361;-64
2023/06/06 01:50:10;0.00;0.00;0.62;0.00;0.00;0.62;3.10;2.80;;;27.70;21.30;;;;;;2260043;61;20365;-65
2023/06/06 01:52:56;0.00;0.00;0.62;0.00;0.00;0.62;2.90;2.60;;;27.70;21.30;;;;;;2259629;61;20934;-65
2023/06/06 01:55:42;0.00;0.00;0.62;0.00;0.00;0.62;3.37;3.07;;;27.70;21.30;;;;;;2260166;61;20361;-64
2023/06/06 01:58:27;0.00;0.00;0.62;0.00;0.00;0.62;4.00;3.37;;;27.80;21.30;;;;;;2256957;61;20365;-65
2023/06/06 02:01:12;0.00;0.00;0.62;0.00;0.00;0.62;3.50;3.20;;;27.70;21.20;;;;;;2257050;61;20357;-64
2023/06/06 02:03:56;0.00;0.00;0.62;0.00;0.00;0.62;4.00;3.30;;;27.70;21.20;;;;;;2260207;61;20524;-65
2023/06/06 02:06:41;0.00;0.00;0.62;0.00;0.00;0.62;3.00;2.50;;;27.80;21.30;;;;;;2259871;61;20851;-65
2023/06/06 02:09:27;0.00;0.00;0.62;0.00;0.00;0.62;3.30;3.00;;;27.70;21.30;;;;;;2257048;61;20392;-65
2023/06/06 02:12:13;0.00;0.00;0.62;0.00;0.00;0.62;3.27;2.70;;;27.70;21.30;;;;;;2259781;61;20393;-65
2023/06/06 02:14:58;0.00;0.00;0.62;0.00;0.00;0.62;2.70;2.50;;;27.80;21.40;;;;;;2256765;61;20373;-65
2023/06/06 02:17:43;0.00;0.00;0.62;0.00;0.00;0.62;2.60;2.40;;;27.70;21.40;;;;;;2260326;61;20395;-64
2023/06/06 02:20:28;0.00;0.00;0.62;0.00;0.00;0.62;3.77;3.07;;;27.80;21.50;;;;;;2260362;61;20369;-64
2023/06/06 02:23:14;0.00;0.00;0.62;0.00;0.00;0.62;2.80;2.50;;;27.80;21.50;;;;;;2259865;61;20435;-64
2023/06/06 02:26:00;0.00;0.00;0.62;0.00;0.00;0.62;3.73;3.07;;;27.70;21.40;;;;;;2260315;61;20457;-63
2023/06/06 02:28:46;0.00;0.00;0.62;0.00;0.00;0.62;3.10;2.80;;;27.80;21.50;;;;;;2256800;61;20899;-66
2023/06/06 02:31:31;0.00;0.00;0.62;0.00;0.00;0.62;3.60;3.30;;;27.80;21.60;;;;;;2258883;61;20364;-64
2023/06/06 02:34:15;0.00;0.00;0.62;0.00;0.00;0.62;3.43;2.93;;;27.80;21.60;;;;;;2260321;61;20774;-63
2023/06/06 02:37:02;0.00;0.00;0.62;0.00;0.00;0.62;3.80;3.37;;;27.80;21.60;;;;;;2256739;61;20361;-64
2023/06/06 02:39:47;0.00;0.00;0.62;0.00;0.00;0.62;3.40;2.60;;;27.70;21.50;;;;;;2256848;61;20415;-64
2023/06/06 02:42:31;0.00;0.00;0.62;0.00;0.00;0.62;2.93;2.50;;;27.70;21.50;;;;;;2256550;61;20804;-65
2023/06/06 02:45:19;0.00;0.00;0.62;0.00;0.00;0.62;3.33;3.03;;;27.70;21.50;;;;;;2256840;61;20369;-63
2023/06/06 02:48:05;0.00;0.00;0.62;0.00;0.00;0.62;4.00;2.90;;;27.70;21.50;;;;;;2256910;61;20423;-63
2023/06/06 02:50:50;0.00;0.00;0.62;0.00;0.00;0.62;3.10;2.80;;;27.70;21.50;;;;;;2260095;61;20415;-63
2023/06/06 02:53:34;0.00;0.00;0.62;0.00;0.00;0.62;3.30;2.80;;;27.70;21.50;;;;;;2256532;61;20946;-65
2023/06/06 02:56:19;0.00;0.00;0.62;0.00;0.00;0.62;3.93;2.90;;;27.70;21.40;;;;;;2259957;61;20449;-64
2023/06/06 02:59:06;0.00;0.00;0.62;0.00;0.00;0.62;3.40;2.60;;;27.70;21.50;;;;;;2256787;61;20388;-64
2023/06/06 03:01:52;0.00;0.00;0.62;0.00;0.00;0.62;3.03;2.50;;;27.70;21.50;;;;;;2256440;61;20369;-65
2023/06/06 03:04:37;0.00;0.00;0.62;0.00;0.00;0.62;3.00;2.50;;;27.60;21.50;;;;;;2260592;61;20545;-63
2023/06/06 03:07:22;0.00;0.00;0.62;0.00;0.00;0.62;3.53;3.23;;;27.60;21.60;;;;;;2257310;61;20965;-64
2023/06/06 03:10:08;0.00;0.00;0.62;0.00;0.00;0.62;3.37;2.67;;;27.60;21.60;;;;;;2260884;61;20889;-64
2023/06/06 03:12:59;0.00;0.00;0.62;0.00;0.00;0.62;3.73;3.20;;;27.60;21.60;;;;;;2256965;61;20408;-64
2023/06/06 03:15:45;0.00;0.00;0.62;0.00;0.00;0.62;3.10;2.80;;;27.60;21.60;;;;;;2257628;61;20784;-65
2023/06/06 03:18:32;0.00;0.00;0.62;0.00;0.00;0.62;3.47;2.50;;;27.60;21.70;;;;;;2254563;61;20396;-64
2023/06/06 03:21:25;0.00;0.00;0.62;0.00;0.00;0.62;3.43;2.77;;;27.60;21.70;;;;;;2257174;61;20401;-64
2023/06/06 03:24:13;0.00;0.00;0.62;0.00;0.00;0.62;2.77;2.57;;;27.60;21.70;;;;;;2254846;61;20449;-63
2023/06/06 03:26:59;0.00;0.00;0.62;0.00;0.00;0.62;3.80;2.97;;;27.60;21.80;;;;;;2257532;61;20357;-65
2023/06/06 03:29:44;0.00;0.00;0.62;0.00;0.00;0.62;3.40;3.10;;;27.60;21.70;;;;;;2260634;61;20368;-64
2023/06/06 03:32:29;0.00;0.00;0.62;0.00;0.00;0.62;3.50;2.90;;;27.60;21.70;;;;;;2260214;61;20393;-64
2023/06/06 03:35:17;0.00;0.00;0.62;0.00;0.00;0.62;3.80;2.67;;;27.60;21.70;;;;;;2260312;61;20415;-65
2023/06/06 03:38:02;0.00;0.00;0.62;0.00;0.00;0.62;3.30;3.00;;;27.60;21.80;;;;;;2257439;61;20467;-65
2023/06/06 03:40:47;0.00;0.00;0.62;0.00;0.00;0.62;4.00;3.30;;;27.60;21.80;;;;;;2257177;61;20396;-63
2023/06/06 03:43:32;0.00;0.00;0.62;0.00;0.00;0.62;2.73;2.53;;;27.50;21.80;;;;;;2259765;61;20980;-63
2023/06/06 03:46:18;0.00;0.00;0.62;0.00;0.00;0.62;3.73;3.10;;;27.50;21.80;;;;;;2257225;61;20709;-65
2023/06/06 03:49:02;0.00;0.00;0.62;0.00;0.00;0.62;3.80;2.70;;;27.50;21.80;;;;;;2260466;61;20436;-65
2023/06/06 03:51:48;0.00;0.00;0.62;0.00;0.00;0.62;3.30;3.00;;;27.50;21.80;;;;;;2256312;61;20392;-64
2023/06/06 03:54:37;0.00;0.00;0.62;0.00;0.00;0.62;3.70;3.23;;;27.50;21.80;;;;;;2260222;61;20369;-64
2023/06/06 03:57:22;0.00;0.00;0.62;0.00;0.00;0.62;3.00;2.70;;;27.50;21.80;;;;;;2260151;61;20887;-65
2023/06/06 04:00:13;0.00;0.00;0.62;0.00;0.00;0.62;3.60;2.63;;;27.50;21.90;;;;;;2257322;61;20365;-64
2023/06/06 04:03:00;0.00;0.00;0.62;0.00;0.00;0.62;3.90;2.97;;;27.50;21.80;;;;;;2257019;61;20384;-65
2023/06/06 04:05:47;0.00;0.00;0.62;0.00;0.00;0.62;4.03;3.00;;;27.50;21.80;;;;;;2259763;61;20385;-65
2023/06/06 04:08:33;0.00;0.00;0.62;0.00;0.00;0.62;3.40;3.10;;;27.50;21.90;;;;;;2259100;61;20404;-64
2023/06/06 04:11:18;0.00;0.00;0.62;0.00;0.00;0.62;4.00;2.90;;;27.50;21.90;;;;;;2263673;61;20890;-64
2023/06/06 04:14:04;0.00;0.00;0.62;0.00;0.00;0.62;5.27;3.00;;;27.50;21.90;;;;;;2259682;61;20586;-62
2023/06/06 04:16:49;0.00;0.00;0.62;0.00;0.00;0.62;3.50;3.20;;;27.50;21.90;;;;;;2259077;61;20368;-60
2023/06/06 04:19:34;0.00;0.00;0.62;0.00;0.00;0.62;3.23;2.93;;;27.50;21.90;;;;;;2258771;61;20359;-60
2023/06/06 04:22:22;0.00;0.00;0.62;0.00;0.00;0.62;3.07;2.60;;;27.50;22.00;;;;;;2255588;61;20385;-61
2023/06/06 04:25:12;0.00;0.00;0.62;0.00;0.00;0.62;3.13;2.73;;;27.50;22.00;;;;;;2258931;61;20361;-59
2023/06/06 04:28:00;0.00;0.00;0.62;0.00;0.00;0.62;4.10;3.33;;;27.50;22.00;;;;;;2256533;61;20902;-64
2023/06/06 04:30:46;0.00;0.00;0.62;0.00;0.00;0.62;5.53;3.10;;;27.50;22.00;;;;;;2258580;61;20941;-62
2023/06/06 04:33:32;0.00;0.00;0.62;0.00;0.00;0.62;4.40;3.63;;;27.50;22.00;;;;;;2262283;61;20501;-62
2023/06/06 04:36:18;0.00;0.00;0.62;0.00;0.00;0.62;3.73;2.90;;;27.50;22.00;;;;;;2259286;61;20357;-60
2023/06/06 04:39:04;0.00;0.00;0.62;0.00;0.00;0.62;3.30;3.00;;;27.40;21.90;;;;;;2256759;61;20388;-62
2023/06/06 04:41:50;0.00;0.00;0.62;0.00;0.00;0.62;4.13;3.20;;;27.40;21.90;;;;;;2257989;61;20457;-65
2023/06/06 04:44:42;0.00;0.00;0.62;0.00;0.00;0.62;3.83;3.10;;;27.40;21.90;;;;;;2263032;61;20361;-63
2023/06/06 04:47:28;0.00;0.00;0.62;0.00;0.00;0.62;5.20;3.27;;;27.40;21.90;;;;;;2263161;61;20388;-62
2023/06/06 04:50:13;0.00;0.00;0.62;0.00;0.00;0.62;3.10;2.80;;;27.40;22.00;;;;;;2262699;61;20782;-63
2023/06/06 04:52:57;0.00;0.00;0.62;0.00;0.00;0.62;3.23;2.93;;;27.40;21.90;;;;;;2261049;61;20435;-64
2023/06/06 04:55:43;0.00;0.00;0.62;0.00;0.00;0.62;3.70;3.30;;;27.40;21.90;;;;;;2262413;61;20441;-64
2023/06/06 04:58:31;0.00;0.00;0.62;0.00;0.00;0.62;3.70;3.40;;;27.40;21.90;;;;;;2261338;61;20341;-62
2023/06/06 05:01:16;0.00;0.00;0.62;0.00;0.00;0.62;3.77;3.13;;;27.40;22.00;;;;;;2262772;61;20365;-63
2023/06/06 05:04:01;0.00;0.00;0.62;0.00;0.00;0.62;3.30;3.00;;;27.40;22.00;;;;;;2262750;61;20377;-64
2023/06/06 05:06:46;0.00;0.00;0.62;0.00;0.00;0.62;4.77;3.20;;;27.40;22.00;;;;;;2263873;61;20796;-63
2023/06/06 05:09:31;0.00;0.00;0.62;0.00;0.00;0.62;4.13;3.73;;;27.40;22.00;;;;;;2262412;61;20361;-61
2023/06/06 05:12:16;0.00;0.00;0.62;0.00;0.00;0.62;3.00;2.70;;;27.40;22.00;;;;;;2262800;61;20397;-61
2023/06/06 05:15:03;0.00;0.00;0.62;0.00;0.00;0.62;3.67;3.13;;;27.40;22.00;;;;;;2261818;61;20412;-62
2023/06/06 05:17:55;0.00;0.00;0.62;0.00;0.00;0.62;3.47;2.90;;;27.40;22.10;;;;;;2263010;61;20384;-62
2023/06/06 05:20:41;0.00;0.00;0.62;0.00;0.00;0.62;4.47;3.77;;;27.40;22.10;;;;;;2262348;61;20369;-63
2023/06/06 05:23:26;0.00;0.00;0.62;0.00;0.00;0.62;4.00;3.60;;;27.40;22.10;;;;;;2258274;61;20376;-62
2023/06/06 05:26:11;0.00;0.00;0.62;0.00;0.00;0.62;3.83;3.17;;;27.40;22.20;;;;;;2260945;61;20899;-63
2023/06/06 05:28:56;0.00;0.00;0.62;0.00;0.00;0.62;3.47;3.17;;;27.40;22.20;;;;;;2262243;61;20461;-64
2023/06/06 05:31:43;0.00;0.00;0.62;0.00;0.00;0.62;3.60;3.20;;;27.40;22.20;;;;;;2260832;61;20496;-64
2023/06/06 05:34:28;0.00;0.00;0.62;0.00;0.00;0.62;5.00;3.90;;;27.40;22.20;;;;;;2260349;61;20437;-63
2023/06/06 05:37:12;0.00;0.00;0.62;0.00;0.00;0.62;3.80;3.20;;;27.40;22.20;;;;;;2255489;61;20412;-63
2023/06/06 05:39:57;0.00;0.00;0.62;0.00;0.00;0.62;4.60;4.10;;;27.40;22.30;;;;;;2260644;61;20360;-63
2023/06/06 05:42:41;0.00;0.00;0.62;0.00;0.00;0.62;5.30;4.63;;;27.40;22.30;;;;;;2256825;61;20465;-64
2023/06/06 05:45:26;0.00;0.00;0.62;0.00;0.00;0.62;4.10;3.70;;;27.40;22.40;;;;;;2257439;61;20372;-63
2023/06/06 05:48:12;0.00;0.00;0.62;0.00;0.00;0.62;3.83;3.47;;;27.40;22.40;;;;;;2260946;61;20391;-62
2023/06/06 05:50:57;0.00;0.00;0.62;0.00;0.00;0.62;4.10;3.70;;;27.40;22.40;;;;;;2260491;61;20401;-60
2023/06/06 05:53:44;0.00;0.00;0.62;0.00;0.00;0.62;4.13;3.73;;;27.40;22.40;;;;;;2259958;61;20477;-66
2023/06/06 05:56:28;0.00;0.00;0.62;0.00;0.00;0.62;4.90;3.60;;;27.40;22.40;;;;;;2260147;61;20898;-63
2023/06/06 05:59:14;0.00;0.00;0.62;0.00;0.00;0.62;4.20;3.77;;;27.40;22.40;;;;;;2260326;61;20427;-63
2023/06/06 06:01:58;0.00;0.00;0.62;0.00;0.00;0.62;5.43;3.67;;;27.30;22.40;;;;;;2260080;61;20435;-64
2023/06/06 06:04:45;0.00;0.00;0.62;0.00;0.00;0.62;4.37;3.60;;;27.40;22.50;;;;;;2260306;61;20891;-65
2023/06/06 06:07:30;0.00;0.00;0.62;0.00;0.00;0.62;4.43;4.03;;;27.40;22.50;;;;;;2257126;61;20415;-65
2023/06/06 06:10:15;0.00;0.00;0.62;0.00;0.00;0.62;4.83;3.80;;;27.40;22.50;;;;;;2260041;61;20366;-67
2023/06/06 06:13:01;0.00;0.00;0.62;0.00;0.00;0.62;4.23;3.83;;;27.30;22.40;;;;;;2259927;61;20392;-66
2023/06/06 06:15:45;0.00;0.00;0.62;0.00;0.00;0.62;4.67;4.23;;;27.30;22.50;;;;;;2259960;61;20891;-65
2023/06/06 06:18:30;0.00;0.00;0.62;0.00;0.00;0.62;4.03;3.57;;;27.40;22.60;;;;;;2260164;61;20476;-67
2023/06/06 06:21:16;0.00;0.00;0.62;0.00;0.00;0.62;4.33;3.93;;;27.40;22.60;;;;;;2253498;61;20362;-67
2023/06/06 06:24:01;0.00;0.00;0.62;0.00;0.00;0.62;4.07;3.67;;;27.30;22.60;;;;;;2260224;61;20439;-64
2023/06/06 06:26:46;0.00;0.00;0.62;0.00;0.00;0.62;4.13;3.70;;;27.40;22.70;;;;;;2260005;61;20476;-62
2023/06/06 06:29:30;0.00;0.00;0.62;0.00;0.00;0.62;4.83;3.90;;;27.40;22.70;;;;;;2260354;61;20368;-62
2023/06/06 06:32:17;0.00;0.00;0.62;0.00;0.00;0.62;4.40;3.97;;;27.40;22.70;;;;;;2259897;61;20389;-61
2023/06/06 06:35:02;0.00;0.00;0.62;0.00;0.00;0.62;4.40;3.97;;;27.40;22.70;;;;;;2260337;61;20875;-62
2023/06/06 06:37:49;0.00;0.00;0.62;0.00;0.00;0.62;4.00;3.60;;;27.40;22.80;;;;;;2260414;61;20398;-60
2023/06/06 06:40:33;0.00;0.00;0.62;0.00;0.00;0.62;3.97;3.57;;;27.40;22.70;;;;;;2260927;61;20485;-65
2023/06/06 06:43:18;0.00;0.00;0.62;0.00;0.00;0.62;4.13;3.63;;;27.40;22.70;;;;;;2260328;61;20400;-64
2023/06/06 06:46:12;0.00;0.00;0.62;0.00;0.00;0.62;4.33;3.77;;;27.40;22.70;;;;;;2257798;61;20414;-67
2023/06/06 06:48:57;0.00;0.00;0.62;0.00;0.00;0.62;5.07;4.30;;;27.40;22.80;;;;;;2260734;61;20951;-61
2023/06/06 06:51:41;0.00;0.00;0.62;0.00;0.00;0.62;5.33;3.90;;;27.40;22.80;;;;;;2257385;61;20369;-63
2023/06/06 06:54:28;0.00;0.00;0.62;0.00;0.00;0.62;3.90;3.50;;;27.40;22.80;;;;;;2260472;61;20411;-62
2023/06/06 06:57:12;0.00;0.00;0.62;0.00;0.00;0.62;5.07;4.00;;;27.40;22.80;;;;;;2261089;61;20878;-64
2023/06/06 06:59:58;0.00;0.00;0.62;0.00;0.00;0.62;3.77;3.37;;;27.40;22.80;;;;;;2260881;61;20376;-63
2023/06/06 07:02:44;0.00;0.00;0.62;0.00;0.00;0.62;4.00;3.60;;;27.40;22.80;;;;;;2260357;61;20504;-64
2023/06/06 07:05:29;0.00;0.00;0.62;0.00;0.00;0.62;4.27;3.07;;;27.40;22.70;;;;;;2260298;61;20368;-61
2023/06/06 07:08:13;0.00;0.00;0.62;0.00;0.00;0.62;3.30;3.00;;;27.40;22.70;;;;;;2260462;61;20767;-59
2023/06/06 07:10:59;0.00;0.00;0.62;0.00;0.00;0.62;3.70;3.07;;;27.40;22.70;;;;;;2260165;61;20407;-60
2023/06/06 07:13:44;0.00;0.00;0.62;0.00;0.00;0.62;3.10;2.30;;;27.40;22.60;;;;;;2260140;61;20435;-63
2023/06/06 07:16:31;0.00;0.00;0.62;0.00;0.00;0.62;2.77;2.47;;;27.40;22.60;;;;;;2260402;61;20415;-63
2023/06/06 07:19:15;0.00;0.00;0.62;0.00;0.00;0.62;3.20;2.60;;;27.40;22.60;;;;;;2260964;61;20365;-65
2023/06/06 07:22:00;0.00;0.00;0.62;0.00;0.00;0.62;2.50;2.20;;;27.40;22.60;;;;;;2260588;61;20435;-65
2023/06/06 07:24:46;0.00;0.00;0.62;0.00;0.00;0.62;2.40;2.20;;;27.40;22.60;;;;;;2261043;61;20902;-67
2023/06/06 07:27:37;0.00;0.00;0.62;0.00;0.00;0.62;3.00;2.70;;;27.40;22.50;;;;;;2261205;61;20902;-66
2023/06/06 07:30:22;0.00;0.00;0.62;0.00;0.00;0.62;2.70;2.50;;;27.30;22.50;;;;;;2261051;61;20365;-64
2023/06/06 07:33:06;0.00;0.00;0.62;0.00;0.00;0.62;3.03;2.50;;;27.40;22.60;;;;;;2260251;61;20400;-64
2023/06/06 07:35:51;0.00;0.00;0.62;0.00;0.00;0.62;2.50;2.00;;;27.30;22.50;;;;;;2260890;61;20368;-65
2023/06/06 07:38:36;0.00;0.00;0.62;0.00;0.00;0.62;3.40;2.60;;;27.30;22.50;;;;;;2260960;61;20393;-66
2023/06/06 07:41:21;0.00;0.00;0.62;0.00;0.00;0.62;3.10;2.40;;;27.30;22.50;;;;;;2261117;61;20361;-64
2023/06/06 07:44:08;0.00;0.00;0.62;0.00;0.00;0.62;3.20;2.90;;;27.30;22.50;;;;;;2260790;61;20411;-64
2023/06/06 07:46:52;0.00;0.00;0.62;0.00;0.00;0.62;3.43;3.07;;;27.40;22.50;;;;;;2260503;61;20455;-64
2023/06/06 07:49:37;0.00;0.00;0.62;0.00;0.00;0.62;3.00;2.50;;;27.30;22.50;;;;;;2260576;61;20404;-65
2023/06/06 07:52:22;0.00;0.00;0.62;0.00;0.00;0.62;2.93;2.57;;;27.30;22.40;;;;;;2260364;61;20389;-64
2023/06/06 07:55:08;0.00;0.00;0.62;0.00;0.00;0.62;3.50;3.20;;;27.30;22.50;;;;;;2260523;61;20385;-65
2023/06/06 07:57:56;0.00;0.00;0.62;0.00;0.00;0.62;2.50;2.30;;;27.30;23.00;;;;;;2260829;61;20864;-64
2023/06/06 08:00:44;0.00;0.00;0.62;0.00;0.00;0.62;3.00;2.20;;;27.30;22.50;;;;;;2260828;61;20365;-64
2023/06/06 08:03:29;0.00;0.00;0.62;0.00;0.00;0.62;3.83;2.53;;;27.30;22.50;;;;;;2260433;61;20407;-65
2023/06/06 08:06:14;0.00;0.00;0.62;0.00;0.00;0.62;3.87;2.90;;;27.30;22.50;;;;;;2260674;61;20473;-63
2023/06/06 08:08:59;0.00;0.00;0.62;0.00;0.00;0.62;5.03;2.77;;;27.30;22.50;;;;;;2260811;61;20364;-64
2023/06/06 08:11:44;0.00;0.00;0.62;0.00;0.00;0.62;3.47;2.53;;;27.30;22.50;;;;;;2260336;61;20946;-65
2023/06/06 08:14:30;0.00;0.00;0.62;0.00;0.00;0.62;3.63;3.00;;;27.30;22.60;;;;;;2260484;61;20393;-64
2023/06/06 08:17:16;0.00;0.00;0.62;0.00;0.00;0.62;3.30;3.00;;;27.30;22.60;;;;;;2260703;61;20384;-65
2023/06/06 08:20:01;0.00;0.00;0.62;0.00;0.00;0.62;2.83;2.53;;;27.30;22.50;;;;;;2260689;61;20369;-64
2023/06/06 08:22:50;0.00;0.00;0.62;0.00;0.00;0.62;2.80;2.50;;;27.30;22.50;;;;;;2260267;61;20427;-67
2023/06/06 08:25:39;0.00;0.00;0.62;0.00;0.00;0.62;4.10;3.30;;;27.30;22.60;;;;;;2260745;61;20420;-65
2023/06/06 08:28:25;0.00;0.00;0.62;0.00;0.00;0.62;3.50;3.13;;;27.30;22.60;;;;;;2260992;61;20929;-65
2023/06/06 08:31:14;0.00;0.00;0.62;0.00;0.00;0.62;4.13;3.00;;;27.30;22.60;;;;;;2260999;61;20385;-63
2023/06/06 08:34:00;0.00;0.00;0.62;0.00;0.00;0.62;3.50;3.20;;;27.30;22.60;;;;;;2254461;61;20439;-67
2023/06/06 08:36:45;0.00;0.00;0.62;0.00;0.00;0.62;3.37;3.07;;;27.30;22.70;;;;;;2260552;61;20369;-63
2023/06/06 08:39:29;0.00;0.00;0.62;0.00;0.00;0.62;3.10;2.80;;;27.30;22.70;;;;;;2260593;61;20385;-60
2023/06/06 08:42:17;0.00;0.00;0.62;0.00;0.00;0.62;2.83;2.50;;;27.30;22.70;;;;;;2260496;61;20788;-61
2023/06/06 08:45:03;0.00;0.00;0.62;0.00;0.00;0.62;5.23;3.20;;;27.30;22.70;;;;;;2260583;61;20906;-62
2023/06/06 08:47:49;0.00;0.00;0.62;0.00;0.00;0.62;4.13;2.57;;;27.30;22.70;;;;;;2260416;61;20380;-61
2023/06/06 08:50:35;0.00;0.00;0.62;0.00;0.00;0.62;3.80;3.10;;;27.30;22.80;;;;;;2260438;61;20365;-64
2023/06/06 08:53:21;0.00;0.00;0.62;0.00;0.00;0.62;4.63;2.80;;;27.40;22.80;;;;;;2259804;61;20397;-64
2023/06/06 08:56:08;0.00;0.00;0.62;0.00;0.00;0.62;4.23;3.83;;;27.30;22.70;;;;;;2260091;61;20878;-64
2023/06/06 08:58:53;0.00;0.00;0.62;0.00;0.00;0.62;7.17;3.60;;;27.30;22.80;;;;;;2260588;61;20358;-63
2023/06/06 09:01:38;0.00;0.00;0.62;0.00;0.00;0.62;4.73;3.40;;;27.40;22.80;;;;;;2258836;61;20388;-62
2023/06/06 09:04:24;0.00;0.00;0.62;0.00;0.00;0.62;2.63;2.40;;;27.40;22.80;;;;;;2260604;61;20361;-66
2023/06/06 09:07:13;0.00;0.00;0.62;0.00;0.00;0.62;3.70;3.37;;;27.40;22.80;;;;;;2260930;61;20365;-65
2023/06/06 09:09:58;0.00;0.00;0.62;0.00;0.00;0.62;2.80;2.60;;;27.40;22.80;;;;;;2260150;61;20361;-62
2023/06/06 09:12:44;0.00;0.00;0.62;0.00;0.00;0.62;4.03;3.40;;;27.40;22.80;;;;;;2260000;61;20401;-62
2023/06/06 09:15:29;0.00;0.00;0.62;0.00;0.00;0.62;3.33;2.90;;;27.40;22.80;;;;;;2260256;61;20365;-64
2023/06/06 09:18:15;0.00;0.00;0.62;0.00;0.00;0.62;3.10;2.80;;;27.40;22.80;;;;;;2260527;61;20396;-66
2023/06/06 09:21:00;0.00;0.00;0.62;0.00;0.00;0.62;4.30;3.23;;;27.40;22.80;;;;;;2260640;61;20364;-64
2023/06/06 09:23:46;0.00;0.00;0.62;0.00;0.00;0.62;3.17;2.87;;;27.40;22.80;;;;;;2259973;61;20420;-64
2023/06/06 09:26:34;0.00;0.00;0.62;0.00;0.00;0.62;3.67;3.20;;;27.40;22.80;;;;;;2260728;61;20779;-65
2023/06/06 09:29:18;0.00;0.00;0.62;0.00;0.00;0.62;3.43;3.13;;;27.40;22.80;;;;;;2260387;61;20404;-64
2023/06/06 09:32:07;0.00;0.00;0.62;0.00;0.00;0.62;3.60;3.13;;;27.40;22.80;;;;;;2260127;61;20381;-61
2023/06/06 09:34:53;0.00;0.00;0.62;0.00;0.00;0.62;3.60;3.20;;;27.40;22.80;;;;;;2260393;61;20442;-64
2023/06/06 09:37:40;0.00;0.00;0.62;0.00;0.00;0.62;3.23;2.80;;;27.40;22.80;;;;;;2260185;61;20370;-60
2023/06/06 09:40:27;0.00;0.00;0.62;0.00;0.00;0.62;3.53;3.23;;;27.50;22.90;;;;;;2260458;61;20365;-64
2023/06/06 09:43:12;0.00;0.00;0.62;0.00;0.00;0.62;3.00;2.70;;;27.50;22.80;;;;;;2260241;61;20834;-61
2023/06/06 09:45:58;0.00;0.00;0.62;0.00;0.00;0.62;3.03;2.70;;;27.50;22.80;;;;;;2259993;61;20458;-63
2023/06/06 09:48:53;0.00;0.00;0.62;0.00;0.00;0.62;4.27;2.83;;;27.50;22.90;;;;;;2260417;61;20902;-60
2023/06/06 09:51:41;0.00;0.00;0.62;0.00;0.00;0.62;3.73;3.17;;;27.50;22.90;;;;;;2259988;61;20353;-63
2023/06/06 09:54:26;0.00;0.00;0.62;0.00;0.00;0.62;4.10;3.30;;;27.50;22.90;;;;;;2260191;61;20400;-64
2023/06/06 09:57:13;0.00;0.00;0.62;0.00;0.00;0.62;3.00;2.70;;;27.50;22.80;;;;;;2260383;61;20356;-58
2023/06/06 10:00:01;0.00;0.00;0.62;0.00;0.00;0.62;3.20;2.90;;;27.50;22.80;;;;;;2260084;61;20411;-62
2023/06/06 10:02:47;0.00;0.00;0.62;0.00;0.00;0.62;3.20;2.90;;;27.50;22.80;;;;;;2259012;61;20388;-61
2023/06/06 10:05:37;0.00;0.00;0.62;0.00;0.00;0.62;4.97;3.53;;;27.50;22.80;;;;;;2290780;61;20373;-61
2023/06/06 10:08:23;0.00;0.00;0.62;0.00;0.00;0.62;3.60;2.70;;;27.50;22.80;;;;;;2491562;53;20416;-64
2023/06/06 10:11:09;0.00;0.00;0.62;0.00;0.00;0.62;3.80;3.40;;;27.50;22.80;;;;;;2258318;61;20446;-63
2023/06/06 10:13:56;0.00;0.00;0.62;0.00;0.00;0.62;3.67;3.33;;;27.50;22.80;;;;;;2259867;61;20461;-63
2023/06/06 10:16:40;0.00;0.00;0.62;0.00;0.00;0.62;2.90;2.53;;;27.60;22.80;;;;;;2260170;61;20499;-61
2023/06/06 10:19:26;0.00;0.00;0.62;0.00;0.00;0.62;3.93;3.20;;;27.60;22.80;;;;;;2260859;61;20410;-66
2023/06/06 10:22:10;0.00;0.00;0.62;0.00;0.00;0.62;3.27;2.90;;;27.60;22.80;;;;;;2263525;61;20789;-65
2023/06/06 10:24:57;0.00;0.00;0.62;0.00;0.00;0.62;3.30;2.93;;;27.60;22.80;;;;;;2263208;61;20372;-64
2023/06/06 10:27:54;0.00;0.00;0.62;0.00;0.00;0.62;3.50;3.20;;;27.60;22.80;;;;;;2260127;61;20372;-62
2023/06/06 10:30:55;0.00;0.00;0.62;0.00;0.00;0.62;2.80;2.60;;;27.60;22.80;;;;;;2261294;61;20376;-64
2023/06/06 10:33:46;0.00;0.00;0.62;0.00;0.00;0.62;3.30;3.00;;;27.70;22.90;;;;;;2258543;61;20425;-62
2023/06/06 10:36:43;0.00;0.00;0.62;0.00;0.00;0.62;3.63;2.70;;;27.60;22.80;;;;;;2349955;53;20424;-62
2023/06/06 10:39:29;0.00;0.00;0.62;0.00;0.00;0.62;3.30;2.70;;;27.70;22.90;;;;;;2259876;61;20369;-62
2023/06/06 10:42:15;0.00;0.00;0.62;0.00;0.00;0.62;3.43;3.13;;;27.70;22.90;;;;;;2255325;61;20385;-64
2023/06/06 10:45:00;0.00;0.00;0.62;0.00;0.00;0.62;3.60;3.20;;;27.70;22.90;;;;;;2259893;61;20369;-62
2023/06/06 10:47:46;0.00;0.00;0.62;0.00;0.00;0.62;3.23;2.90;;;27.80;22.90;;;;;;2260139;61;20415;-64
2023/06/06 10:50:31;0.00;0.00;0.62;0.00;0.00;0.62;4.10;2.80;;;27.70;22.90;;;;;;2260148;61;20771;-64
2023/06/06 10:53:16;0.00;0.00;0.62;0.00;0.00;0.62;3.80;3.30;;;27.70;22.90;;;;;;2259384;61;20481;-64
2023/06/06 10:56:06;0.00;0.00;0.62;0.00;0.00;0.62;3.57;3.00;;;27.80;22.90;;;;;;2260093;61;20357;-66